createdAt,value
2019-01-20T00:02:22.739Z,-4.48
2019-01-20T00:04:56.782Z,-4.49
2019-01-20T00:07:30.781Z,-4.47
2019-01-20T00:10:02.060Z,-4.50
2019-01-20T00:12:35.865Z,-4.53
2019-01-20T00:15:10.024Z,-4.52
2019-01-20T00:17:44.222Z,-4.52
2019-01-20T00:20:17.851Z,-4.45
2019-01-20T00:22:51.693Z,-4.44
2019-01-20T00:25:23.809Z,-4.45
2019-01-20T00:27:56.842Z,-4.44
2019-01-20T00:30:29.803Z,-4.41
2019-01-20T00:33:01.095Z,-4.40
2019-01-20T00:35:32.831Z,-4.48
2019-01-20T00:38:08.921Z,-4.46
2019-01-20T00:40:44.340Z,-4.47
2019-01-20T00:43:18.034Z,-4.46
2019-01-20T00:45:50.876Z,-4.48
2019-01-20T00:48:26.428Z,-4.58
2019-01-20T00:50:58.861Z,-4.48
2019-01-20T00:53:33.251Z,-4.46
2019-01-20T00:56:04.580Z,-4.49
2019-01-20T00:58:38.977Z,-4.48
2019-01-20T01:01:13.015Z,-4.39
2019-01-20T01:03:46.836Z,-4.43
2019-01-20T01:06:20.850Z,-4.33
2019-01-20T01:08:54.462Z,-4.23
2019-01-20T01:11:31.603Z,-4.36
2019-01-20T01:13:58.907Z,-4.35
2019-01-20T01:16:33.403Z,-4.33
2019-01-20T01:19:07.186Z,-4.42
2019-01-20T01:21:39.022Z,-4.35
2019-01-20T01:24:11.129Z,-4.34
2019-01-20T01:26:44.099Z,-4.43
2019-01-20T01:29:17.276Z,-4.34
2019-01-20T01:31:48.485Z,-4.32
2019-01-20T01:34:22.243Z,-4.26
2019-01-20T01:36:53.501Z,-4.23
2019-01-20T01:39:27.213Z,-4.33
2019-01-20T01:42:00.639Z,-4.25
2019-01-20T01:44:32.129Z,-4.29
2019-01-20T01:47:04.127Z,-4.45
2019-01-20T01:49:36.300Z,-4.41
2019-01-20T01:52:10.078Z,-4.36
2019-01-20T01:54:42.149Z,-4.59
2019-01-20T01:57:15.214Z,-4.47
2019-01-20T01:59:49.301Z,-4.47
2019-01-20T02:02:23.394Z,-4.38
2019-01-20T02:04:58.308Z,-4.35
2019-01-20T02:07:31.322Z,-4.32
2019-01-20T02:10:02.697Z,-4.26
2019-01-20T02:12:33.926Z,-4.25
2019-01-20T02:15:08.323Z,-4.23
2019-01-20T02:17:41.267Z,-4.20
2019-01-20T02:20:15.290Z,-4.24
2019-01-20T02:22:49.465Z,-4.23
2019-01-20T02:25:23.257Z,-4.19
2019-01-20T02:27:56.352Z,-4.11
2019-01-20T02:30:30.029Z,-4.05
2019-01-20T02:33:03.228Z,-4.05
2019-01-20T02:35:38.046Z,-3.97
2019-01-20T02:38:12.141Z,-4.01
2019-01-20T02:40:44.292Z,-4.14
2019-01-20T02:43:15.556Z,-4.10
2019-01-20T02:45:51.247Z,-4.16
2019-01-20T02:48:23.595Z,-4.23
2019-01-20T02:50:57.586Z,-4.14
2019-01-20T02:53:31.733Z,-4.23
2019-01-20T02:56:03.449Z,-4.27
2019-01-20T02:58:36.557Z,-4.17
2019-01-20T03:01:10.456Z,-4.21
2019-01-20T03:03:44.859Z,-4.22
2019-01-20T03:06:18.498Z,-4.24
2019-01-20T03:08:52.515Z,-4.17
2019-01-20T03:11:26.442Z,-4.17
2019-01-20T03:13:57.638Z,-4.25
2019-01-20T03:16:28.874Z,-4.20
2019-01-20T03:19:01.065Z,-4.18
2019-01-20T03:21:33.441Z,-4.11
2019-01-20T03:24:07.540Z,-4.21
2019-01-20T03:26:41.705Z,-4.24
2019-01-20T03:29:15.544Z,-4.19
2019-01-20T03:31:49.348Z,-4.26
2019-01-20T03:34:22.995Z,-4.20
2019-01-20T03:36:57.078Z,-4.26
2019-01-20T03:39:30.781Z,-4.26
2019-01-20T03:42:11.526Z,-4.24
2019-01-20T03:44:38.894Z,-4.30
2019-01-20T03:47:10.175Z,-4.24
2019-01-20T03:49:43.715Z,-4.33
2019-01-20T03:52:17.617Z,-4.35
2019-01-20T03:54:51.770Z,-4.41
2019-01-20T03:57:23.904Z,-4.47
2019-01-20T03:59:56.878Z,-4.46
2019-01-20T04:02:32.532Z,-4.50
2019-01-20T04:05:05.209Z,-4.52
2019-01-20T04:07:38.897Z,-4.51
2019-01-20T04:10:13.917Z,-4.59
2019-01-20T04:12:46.930Z,-4.55
2019-01-20T04:15:20.720Z,-4.53
2019-01-20T04:17:54.912Z,-4.52
2019-01-20T04:20:26.144Z,-4.55
2019-01-20T04:23:00.340Z,-4.54
2019-01-20T04:25:34.052Z,-4.56
2019-01-20T04:28:06.748Z,-4.59
2019-01-20T04:30:39.729Z,-4.58
2019-01-20T04:33:12.649Z,-4.58
2019-01-20T04:35:43.957Z,-4.58
2019-01-20T04:38:16.905Z,-4.74
2019-01-20T04:40:49.047Z,-4.77
2019-01-20T04:43:22.054Z,-4.72
2019-01-20T04:45:55.988Z,-4.82
2019-01-20T04:48:32.137Z,-4.85
2019-01-20T04:51:04.353Z,-4.80
2019-01-20T04:53:36.467Z,-4.88
2019-01-20T04:56:09.132Z,-4.85
2019-01-20T04:58:43.404Z,-4.85
2019-01-20T05:01:18.566Z,-4.95
2019-01-20T05:03:50.969Z,-5.01
2019-01-20T05:06:25.314Z,-4.96
2019-01-20T05:08:56.584Z,-5.02
2019-01-20T05:11:28.120Z,-5.00
2019-01-20T05:14:00.675Z,-5.13
2019-01-20T05:16:32.265Z,-5.19
2019-01-20T05:19:04.245Z,-5.17
2019-01-20T05:21:37.298Z,-5.22
2019-01-20T05:24:12.813Z,-5.19
2019-01-20T05:26:46.833Z,-5.29
2019-01-20T05:29:20.368Z,-5.32
2019-01-20T05:31:53.191Z,-5.25
2019-01-20T05:34:25.240Z,-5.23
2019-01-20T05:36:59.249Z,-5.24
2019-01-20T05:39:33.270Z,-5.31
2019-01-20T05:42:08.067Z,-5.24
2019-01-20T05:44:41.395Z,-5.34
2019-01-20T05:47:12.597Z,-5.46
2019-01-20T05:49:43.820Z,-5.46
2019-01-20T05:52:19.002Z,-5.56
2019-01-20T05:54:52.266Z,-5.57
2019-01-20T05:57:26.023Z,-5.56
2019-01-20T05:59:59.559Z,-5.48
2019-01-20T06:02:32.437Z,-5.65
2019-01-20T06:05:04.882Z,-5.63
2019-01-20T06:07:38.341Z,-5.75
2019-01-20T06:10:13.019Z,-5.85
2019-01-20T06:12:53.596Z,-5.79
2019-01-20T06:15:21.434Z,-5.75
2019-01-20T06:17:54.281Z,-5.71
2019-01-20T06:20:25.495Z,-5.75
2019-01-20T06:22:59.414Z,-5.73
2019-01-20T06:25:33.928Z,-5.74
2019-01-20T06:28:06.756Z,-5.74
2019-01-20T06:30:39.551Z,-5.72
2019-01-20T06:33:13.529Z,-5.80
2019-01-20T06:35:46.123Z,-5.86
2019-01-20T06:38:18.922Z,-5.88
2019-01-20T06:40:51.580Z,-5.94
2019-01-20T06:43:25.416Z,-5.92
2019-01-20T06:45:59.844Z,-5.99
2019-01-20T06:48:34.154Z,-5.99
2019-01-20T06:51:07.099Z,-5.96
2019-01-20T06:53:38.348Z,-6.11
2019-01-20T06:56:11.477Z,-6.02
2019-01-20T06:58:47.064Z,-6.09
2019-01-20T07:01:20.694Z,-6.03
2019-01-20T07:03:56.241Z,-6.30
2019-01-20T07:06:27.468Z,-6.14
2019-01-20T07:08:59.115Z,-6.25
2019-01-20T07:11:30.468Z,-6.21
2019-01-20T07:14:01.759Z,-6.14
2019-01-20T07:16:34.944Z,-6.07
2019-01-20T07:19:10.525Z,-6.05
2019-01-20T07:21:42.714Z,-6.07
2019-01-20T07:24:14.588Z,-6.09
2019-01-20T07:26:47.582Z,-6.00
2019-01-20T07:29:21.659Z,-5.98
2019-01-20T07:31:52.901Z,-5.97
2019-01-20T07:34:27.461Z,-6.07
2019-01-20T07:37:00.833Z,-6.06
2019-01-20T07:39:37.219Z,-6.08
2019-01-20T07:42:10.857Z,-6.10
2019-01-20T07:44:42.841Z,-6.07
2019-01-20T07:47:26.145Z,-6.04
2019-01-20T07:49:59.673Z,-5.92
2019-01-20T07:52:31.402Z,-5.91
2019-01-20T07:55:02.955Z,-5.85
2019-01-20T07:57:36.871Z,-5.93
2019-01-20T08:00:13.423Z,-5.83
2019-01-20T08:02:46.828Z,-5.85
2019-01-20T08:05:21.156Z,-5.78
2019-01-20T08:07:52.365Z,-5.75
2019-01-20T08:10:28.672Z,-5.70
2019-01-20T08:12:59.880Z,-5.74
2019-01-20T08:15:32.696Z,-5.84
2019-01-20T08:18:05.213Z,-5.78
2019-01-20T08:20:40.441Z,-5.64
2019-01-20T08:23:13.329Z,-5.75
2019-01-20T08:25:47.353Z,-5.64
2019-01-20T08:28:21.231Z,-5.50
2019-01-20T08:30:55.000Z,-5.37
2019-01-20T08:33:30.617Z,-5.24
2019-01-20T08:36:04.532Z,-5.22
2019-01-20T08:38:37.229Z,-5.36
2019-01-20T08:41:10.160Z,-5.16
2019-01-20T08:43:43.542Z,-5.06
2019-01-20T08:46:33.858Z,-5.02
2019-01-20T08:49:08.016Z,-5.07
2019-01-20T08:51:41.001Z,-4.89
2019-01-20T08:54:13.926Z,-4.93
2019-01-20T08:56:48.647Z,-4.90
2019-01-20T08:59:21.078Z,-4.73
2019-01-20T09:01:54.156Z,-4.67
2019-01-20T09:04:28.733Z,-4.51
2019-01-20T09:07:02.694Z,-4.50
2019-01-20T09:09:34.193Z,-4.55
2019-01-20T09:12:08.253Z,-4.40
2019-01-20T09:14:41.271Z,-4.34
2019-01-20T09:20:26.096Z,-4.21
2019-01-20T09:22:59.097Z,-4.21
2019-01-20T09:25:33.148Z,-4.30
2019-01-20T09:28:08.716Z,-4.33
2019-01-20T09:30:41.074Z,-4.21
2019-01-20T09:33:13.320Z,-3.99
2019-01-20T09:35:46.403Z,-4.03
2019-01-20T09:38:19.434Z,-3.79
2019-01-20T09:40:51.320Z,-3.79
2019-01-20T09:43:27.045Z,-3.72
2019-01-20T09:45:59.304Z,-3.73
2019-01-20T09:48:32.338Z,-3.55
2019-01-20T09:51:04.366Z,-3.46
2019-01-20T09:53:38.311Z,-3.43
2019-01-20T09:56:13.974Z,-3.11
2019-01-20T09:58:46.464Z,-3.34
2019-01-20T10:01:20.257Z,-3.21
2019-01-20T10:03:51.529Z,-3.36
2019-01-20T10:06:24.310Z,-3.32
2019-01-20T10:09:00.086Z,-3.18
2019-01-20T10:11:33.588Z,-2.93
2019-01-20T10:14:07.715Z,-2.84
2019-01-20T10:16:40.456Z,-2.89
2019-01-20T10:19:11.847Z,-2.65
2019-01-20T10:21:43.083Z,-2.65
2019-01-20T10:24:17.301Z,-2.77
2019-01-20T10:26:50.375Z,-2.77
2019-01-20T10:29:26.003Z,-2.74
2019-01-20T10:31:58.535Z,-2.61
2019-01-20T10:34:31.315Z,-2.43
2019-01-20T10:37:04.461Z,-2.66
2019-01-20T10:39:37.709Z,-2.76
2019-01-20T10:42:11.389Z,-2.73
2019-01-20T10:44:42.597Z,-2.46
2019-01-20T10:47:15.528Z,-2.45
2019-01-20T10:49:47.733Z,-2.32
2019-01-20T10:52:21.738Z,-2.21
2019-01-20T10:54:55.924Z,-2.24
2019-01-20T10:57:28.731Z,-2.43
2019-01-20T11:00:01.238Z,-2.48
2019-01-20T11:02:34.793Z,-2.28
2019-01-20T11:05:09.766Z,-2.37
2019-01-20T11:07:42.741Z,-2.06
2019-01-20T11:10:14.904Z,-1.90
2019-01-20T11:12:47.713Z,-1.87
2019-01-20T11:15:19.387Z,-2.11
2019-01-20T11:17:52.913Z,-2.11
2019-01-20T11:20:26.605Z,-1.95
2019-01-20T11:22:58.676Z,-2.20
2019-01-20T11:25:36.540Z,-2.25
2019-01-20T11:28:09.161Z,-2.20
2019-01-20T11:30:40.365Z,-1.88
2019-01-20T11:33:13.798Z,-1.82
2019-01-20T11:35:47.741Z,-2.23
2019-01-20T11:38:21.670Z,-1.94
2019-01-20T11:40:56.784Z,-1.82
2019-01-20T11:43:29.969Z,-1.78
2019-01-20T11:46:01.250Z,-1.91
2019-01-20T11:48:37.824Z,-1.88
2019-01-20T11:51:11.743Z,-1.81
2019-01-20T11:53:43.279Z,-1.74
2019-01-20T11:56:16.902Z,-1.72
2019-01-20T11:58:50.801Z,-1.67
2019-01-20T12:01:23.632Z,-1.79
2019-01-20T12:03:55.769Z,-1.63
2019-01-20T12:06:29.891Z,-1.53
2019-01-20T12:09:01.707Z,-1.18
2019-01-20T12:11:34.979Z,-0.86
2019-01-20T12:14:08.032Z,-1.15
2019-01-20T12:16:40.174Z,-0.99
2019-01-20T12:19:13.958Z,-0.92
2019-01-20T12:21:46.791Z,-0.60
2019-01-20T12:24:19.509Z,-0.74
2019-01-20T12:26:53.203Z,-0.77
2019-01-20T12:29:27.181Z,-0.72
2019-01-20T12:32:01.360Z,-0.78
2019-01-20T12:34:34.960Z,-0.95
2019-01-20T12:37:07.817Z,-1.13
2019-01-20T12:39:40.263Z,-1.01
2019-01-20T12:42:14.248Z,-1.09
2019-01-20T12:44:48.276Z,-0.86
2019-01-20T12:47:22.158Z,-0.94
2019-01-20T12:49:55.197Z,-1.00
2019-01-20T12:52:26.710Z,-0.94
2019-01-20T12:54:57.932Z,-1.24
2019-01-20T12:57:31.044Z,-1.25
2019-01-20T13:00:05.883Z,-0.96
2019-01-20T13:02:38.733Z,-1.24
2019-01-20T13:05:13.462Z,-1.03
2019-01-20T13:07:45.198Z,-1.14
2019-01-20T13:10:18.383Z,-1.21
2019-01-20T13:12:49.717Z,-1.14
2019-01-20T13:15:24.171Z,-1.21
2019-01-20T13:17:57.361Z,-0.94
2019-01-20T13:20:31.206Z,-1.17
2019-01-20T13:23:05.170Z,-1.07
2019-01-20T13:25:39.180Z,-0.96
2019-01-20T13:28:10.710Z,-1.04
2019-01-20T13:30:44.214Z,-0.81
2019-01-20T13:33:18.243Z,-1.02
2019-01-20T13:35:49.539Z,-1.23
2019-01-20T13:38:26.687Z,-1.11
2019-01-20T13:41:11.198Z,-1.44
2019-01-20T13:43:43.314Z,-1.32
2019-01-20T13:46:14.528Z,-1.35
2019-01-20T13:48:47.946Z,-1.30
2019-01-20T13:51:19.175Z,-1.59
2019-01-20T13:53:52.554Z,-1.58
2019-01-20T13:56:26.489Z,-1.25
2019-01-20T13:58:58.473Z,-1.27
2019-01-20T14:01:30.410Z,-1.43
2019-01-20T14:04:01.677Z,-1.53
2019-01-20T14:06:33.451Z,-1.57
2019-01-20T14:09:08.778Z,-1.39
2019-01-20T14:11:42.100Z,-1.49
2019-01-20T14:14:13.307Z,-1.45
2019-01-20T14:16:47.307Z,-1.40
2019-01-20T14:19:21.852Z,-1.53
2019-01-20T14:21:54.588Z,-1.50
2019-01-20T14:24:27.840Z,-1.69
2019-01-20T14:27:00.542Z,-1.78
2019-01-20T14:29:33.574Z,-1.65
2019-01-20T14:32:05.690Z,-1.64
2019-01-20T14:34:39.104Z,-1.66
2019-01-20T14:37:12.634Z,-1.75
2019-01-20T14:39:46.568Z,-1.73
2019-01-20T14:42:18.600Z,-1.85
2019-01-20T14:44:52.652Z,-1.83
2019-01-20T14:47:25.565Z,-1.85
2019-01-20T14:49:57.793Z,-1.82
2019-01-20T14:52:30.650Z,-1.79
2019-01-20T14:55:01.952Z,-1.70
2019-01-20T14:57:35.809Z,-1.83
2019-01-20T15:00:14.091Z,-1.70
2019-01-20T15:02:46.572Z,-1.72
2019-01-20T15:05:19.458Z,-1.86
2019-01-20T15:07:52.729Z,-1.86
2019-01-20T15:10:27.595Z,-1.75
2019-01-20T15:12:59.742Z,-1.80
2019-01-20T15:15:35.169Z,-1.89
2019-01-20T15:18:08.326Z,-1.92
2019-01-20T15:20:42.162Z,-1.94
2019-01-20T15:23:15.770Z,-1.66
2019-01-20T15:25:46.980Z,-1.59
2019-01-20T15:28:20.932Z,-1.56
2019-01-20T15:30:54.803Z,-1.61
2019-01-20T15:33:29.106Z,-1.69
2019-01-20T15:36:03.109Z,-1.64
2019-01-20T15:38:37.485Z,-1.64
2019-01-20T15:41:11.113Z,-1.68
2019-01-20T15:43:42.757Z,-1.67
2019-01-20T15:46:17.736Z,-1.66
2019-01-20T15:48:50.142Z,-1.79
2019-01-20T15:51:22.962Z,-1.70
2019-01-20T15:53:54.901Z,-1.74
2019-01-20T15:56:34.111Z,-1.85
2019-01-20T15:59:04.993Z,-1.82
2019-01-20T16:01:36.937Z,-1.99
2019-01-20T16:04:08.156Z,-1.95
2019-01-20T16:06:41.901Z,-1.97
2019-01-20T16:09:13.118Z,-2.15
2019-01-20T16:11:44.333Z,-2.10
2019-01-20T16:14:18.051Z,-2.13
2019-01-20T16:16:51.945Z,-2.16
2019-01-20T16:19:23.206Z,-2.09
2019-01-20T16:21:57.217Z,-2.06
2019-01-20T16:24:31.054Z,-2.00
2019-01-20T16:27:02.828Z,-2.01
2019-01-20T16:29:35.015Z,-2.13
2019-01-20T16:32:06.956Z,-2.09
2019-01-20T16:34:40.256Z,-2.06
2019-01-20T16:37:14.144Z,-1.88
2019-01-20T16:39:48.315Z,-1.84
2019-01-20T16:42:23.813Z,-1.78
2019-01-20T16:44:56.242Z,-1.97
2019-01-20T16:47:27.812Z,-1.89
2019-01-20T16:50:01.200Z,-1.80
2019-01-20T16:52:36.700Z,-1.79
2019-01-20T16:55:08.580Z,-1.75
2019-01-20T16:57:40.465Z,-1.75
2019-01-20T17:00:21.637Z,-1.76
2019-01-20T17:02:55.278Z,-1.75
2019-01-20T17:05:28.385Z,-1.77
2019-01-20T17:08:00.421Z,-1.91
2019-01-20T17:10:34.261Z,-1.95
2019-01-20T17:13:07.546Z,-1.91
2019-01-20T17:15:41.926Z,-1.85
2019-01-20T17:18:16.496Z,-1.57
2019-01-20T17:20:49.701Z,-1.81
2019-01-20T17:23:23.343Z,-1.99
2019-01-20T17:25:57.156Z,-2.22
2019-01-20T17:28:28.427Z,-2.18
2019-01-20T17:30:59.696Z,-2.24
2019-01-20T17:33:34.597Z,-2.18
2019-01-20T17:36:08.268Z,-2.11
2019-01-20T17:38:39.490Z,-2.00
2019-01-20T17:41:15.016Z,-2.06
2019-01-20T17:43:46.236Z,-2.10
2019-01-20T17:46:20.317Z,-2.11
2019-01-20T17:48:53.259Z,-2.12
2019-01-20T17:51:25.407Z,-2.16
2019-01-20T17:53:59.490Z,-2.20
2019-01-20T17:56:33.400Z,-2.20
2019-01-20T17:59:05.597Z,-2.27
2019-01-20T18:01:40.134Z,-2.32
2019-01-20T18:04:12.788Z,-2.38
2019-01-20T18:06:46.437Z,-2.50
2019-01-20T18:09:21.771Z,-2.53
2019-01-20T18:11:55.590Z,-2.53
2019-01-20T18:14:30.450Z,-2.57
2019-01-20T18:17:01.896Z,-2.62
2019-01-20T18:19:33.553Z,-2.69
2019-01-20T18:22:04.860Z,-2.74
2019-01-20T18:24:38.704Z,-2.82
2019-01-20T18:27:13.300Z,-2.90
2019-01-20T18:29:45.937Z,-2.93
2019-01-20T18:32:17.591Z,-3.00
2019-01-20T18:34:49.572Z,-3.13
2019-01-20T18:37:22.777Z,-3.21
2019-01-20T18:39:56.346Z,-3.31
2019-01-20T18:42:27.579Z,-3.45
2019-01-20T18:45:01.717Z,-3.42
2019-01-20T18:47:33.605Z,-3.47
2019-01-20T18:50:06.533Z,-3.74
2019-01-20T18:52:39.415Z,-3.59
2019-01-20T18:55:12.511Z,-3.62
2019-01-20T18:57:44.759Z,-3.56
2019-01-20T19:00:19.706Z,-3.66
2019-01-20T19:02:52.528Z,-3.70
2019-01-20T19:05:24.727Z,-3.73
2019-01-20T19:07:55.975Z,-3.80
2019-01-20T19:10:29.872Z,-3.86
2019-01-20T19:13:01.072Z,-3.96
2019-01-20T19:15:32.402Z,-4.03
2019-01-20T19:18:06.120Z,-4.09
2019-01-20T19:20:40.070Z,-4.19
2019-01-20T19:23:13.101Z,-4.11
2019-01-20T19:25:44.383Z,-4.10
2019-01-20T19:28:17.944Z,-4.04
2019-01-20T19:30:51.993Z,-4.01
2019-01-20T19:33:27.486Z,-3.98
2019-01-20T19:36:01.620Z,-3.93
2019-01-20T19:38:35.952Z,-3.90
2019-01-20T19:41:09.728Z,-4.04
2019-01-20T19:43:41.869Z,-4.12
2019-01-20T19:46:17.366Z,-4.17
2019-01-20T19:48:49.154Z,-4.34
2019-01-20T19:51:22.622Z,-4.26
2019-01-20T19:53:55.035Z,-4.09
2019-01-20T19:56:26.375Z,-4.20
2019-01-20T19:59:00.088Z,-4.22
2019-01-20T20:01:34.025Z,-4.26
2019-01-20T20:04:08.071Z,-4.26
2019-01-20T20:06:42.098Z,-4.38
2019-01-20T20:09:17.652Z,-4.43
2019-01-20T20:11:50.296Z,-4.44
2019-01-20T20:14:25.856Z,-4.39
2019-01-20T20:16:58.128Z,-4.47
2019-01-20T20:19:31.025Z,-4.46
2019-01-20T20:22:02.375Z,-4.43
2019-01-20T20:24:36.384Z,-4.41
2019-01-20T20:27:07.688Z,-4.56
2019-01-20T20:29:41.485Z,-4.64
2019-01-20T20:32:15.194Z,-4.88
2019-01-20T20:34:53.668Z,-5.01
2019-01-20T20:37:23.133Z,-5.10
2019-01-20T20:39:57.297Z,-5.06
2019-01-20T20:42:28.531Z,-5.19
2019-01-20T20:45:02.050Z,-5.30
2019-01-20T20:47:36.377Z,-5.30
2019-01-20T20:50:10.498Z,-5.26
2019-01-20T20:52:46.109Z,-5.33
2019-01-20T20:55:15.825Z,-5.25
2019-01-20T20:57:49.314Z,-5.23
2019-01-20T21:00:26.476Z,-5.43
2019-01-20T21:03:01.473Z,-5.32
2019-01-20T21:05:34.314Z,-5.24
2019-01-20T21:08:07.132Z,-5.21
2019-01-20T21:10:38.377Z,-5.17
2019-01-20T21:13:10.233Z,-5.07
2019-01-20T21:15:43.043Z,-5.04
2019-01-20T21:18:16.432Z,-5.05
2019-01-20T21:20:50.281Z,-4.99
2019-01-20T21:23:25.043Z,-4.91
2019-01-20T21:25:57.429Z,-4.85
2019-01-20T21:28:30.409Z,-4.77
2019-01-20T21:31:01.600Z,-4.74
2019-01-20T21:33:35.234Z,-4.82
2019-01-20T21:36:06.460Z,-4.96
2019-01-20T21:38:40.538Z,-4.83
2019-01-20T21:41:14.560Z,-4.82
2019-01-20T21:43:48.569Z,-4.69
2019-01-20T21:46:20.741Z,-4.63
2019-01-20T21:48:53.894Z,-4.87
2019-01-20T21:51:27.548Z,-4.80
2019-01-20T21:54:01.578Z,-4.90
2019-01-20T21:56:35.576Z,-4.93
2019-01-20T21:59:08.520Z,-4.82
2019-01-20T22:01:41.528Z,-4.81
2019-01-20T22:04:14.313Z,-4.68
2019-01-20T22:06:48.508Z,-4.67
2019-01-20T22:09:21.549Z,-4.87
2019-01-20T22:11:52.974Z,-4.92
2019-01-20T22:14:26.573Z,-4.87
2019-01-20T22:17:00.513Z,-5.16
2019-01-20T22:19:34.526Z,-5.06
2019-01-20T22:22:05.730Z,-5.09
2019-01-20T22:24:36.965Z,-5.07
2019-01-20T22:27:08.286Z,-5.03
2019-01-20T22:29:41.668Z,-4.92
2019-01-20T22:32:17.266Z,-4.83
2019-01-20T22:34:49.692Z,-4.74
2019-01-20T22:37:22.500Z,-4.76
2019-01-20T22:39:56.511Z,-4.99
2019-01-20T22:42:28.256Z,-4.93
2019-01-20T22:44:59.472Z,-5.07
2019-01-20T22:47:33.079Z,-5.02
2019-01-20T22:50:08.093Z,-4.97
2019-01-20T22:52:42.587Z,-5.05
2019-01-20T22:55:17.345Z,-5.12
2019-01-20T22:57:49.229Z,-5.07
2019-01-20T23:00:43.897Z,-5.11
2019-01-20T23:03:18.814Z,-5.15
2019-01-20T23:05:53.835Z,-5.18
2019-01-20T23:08:25.936Z,-5.18
2019-01-20T23:10:59.629Z,-5.16
2019-01-20T23:13:36.464Z,-5.17
2019-01-20T23:16:07.712Z,-5.17
2019-01-20T23:18:40.700Z,-5.18
2019-01-20T23:21:11.929Z,-5.37
2019-01-20T23:23:43.748Z,-5.39
2019-01-20T23:26:14.970Z,-5.42
2019-01-20T23:28:49.022Z,-5.44
2019-01-20T23:31:22.990Z,-5.35
2019-01-20T23:33:56.830Z,-5.50
2019-01-20T23:36:28.052Z,-5.50
2019-01-20T23:38:59.268Z,-5.43
2019-01-20T23:41:32.940Z,-5.44
2019-01-20T23:44:05.883Z,-5.57
2019-01-20T23:46:37.847Z,-5.64
2019-01-20T23:49:09.596Z,-5.63
2019-01-20T23:51:43.069Z,-5.69
2019-01-20T23:54:18.622Z,-5.66
2019-01-20T23:56:50.152Z,-5.72
2019-01-20T23:59:23.010Z,-5.88
